Time;durP1;ratioP1;P1;durP2;ratioP2;P2;SDS_P1;SDS_P2;PMS_P1;PMS_P2;Temp;Humidity;BMP_temperature;BMP_pressure;BME280_temperature;BME280_humidity;BME280_pressure;Samples;Min_cycle;Max_cycle;Signal;HPM_P1;HPM_P2
2023/10/20 00:07:58;;;;;;;21.7;13.7;;;;;;;9.89;91.5;;;;;
2023/10/20 00:19:02;;;;;;;21.7;13.7;;;;;;;9.8;91.67;;;;;
2023/10/20 00:28:58;;;;;;;21.7;13.7;;;;;;;9.76;91.41;;;;;
2023/10/20 00:38:58;;;;;;;23.5;14.1;;;;;;;9.8;91.69;;;;;
2023/10/20 00:48:58;;;;;;;23.5;14.1;;;;;;;9.91;91.57;;;;;
2023/10/20 00:58:58;;;;;;;23.5;14.1;;;;;;;9.88;91.46;;;;;
2023/10/20 01:09:58;;;;;;;22.6;14.1;;;;;;;9.94;91.91;;;;;
2023/10/20 01:19:58;;;;;;;22.6;14.1;;;;;;;10;91.89;;;;;
2023/10/20 01:30:58;;;;;;;23.9;16.7;;;;;;;9.86;91.99;;;;;
2023/10/20 01:41:58;;;;;;;23.9;16.7;;;;;;;9.89;92.05;;;;;
2023/10/20 01:52:58;;;;;;;23.9;16.7;;;;;;;9.93;91.71;;;;;
2023/10/20 02:03:58;;;;;;;22.1;16.7;;;;;;;10.06;91.94;;;;;
2023/10/20 02:14:00;;;;;;;22.1;16.7;;;;;;;10.23;91.68;;;;;
2023/10/20 02:24:58;;;;;;;22.1;16.7;;;;;;;10.18;90.87;;;;;
2023/10/20 02:35:58;;;;;;;24.3;15.8;;;;;;;10.15;90.76;;;;;
2023/10/20 02:46:58;;;;;;;24.3;15.8;;;;;;;10.2;90.56;;;;;
2023/10/20 02:56:58;;;;;;;24.3;15.8;;;;;;;10.12;90.61;;;;;
2023/10/20 03:07:58;;;;;;;24.2;16.6;;;;;;;10.24;90.58;;;;;
2023/10/20 03:17:58;;;;;;;24.2;16.6;;;;;;;10.19;90.48;;;;;
2023/10/20 03:28:58;;;;;;;24.2;16.6;;;;;;;10.1;91.22;;;;;
2023/10/20 03:39:58;;;;;;;22.5;15.4;;;;;;;9.98;92.71;;;;;
2023/10/20 03:50:00;;;;;;;22.5;15.4;;;;;;;10.31;92.1;;;;;
2023/10/20 04:00:58;;;;;;;23;13.2;;;;;;;10.39;91.89;;;;;
2023/10/20 04:10:58;;;;;;;23;13.2;;;;;;;10.38;91.64;;;;;
2023/10/20 04:20:58;;;;;;;23;13.2;;;;;;;10.52;91.51;;;;;
2023/10/20 04:42:44;;;;;;;20.4;13;;;;;;;10.43;91.37;;;;;
2023/10/20 04:52:58;;;;;;;20.4;13;;;;;;;10.43;91.25;;;;;
2023/10/20 05:03:59;;;;;;;22.7;16.5;;;;;;;10.35;91.5;;;;;
2023/10/20 05:14:58;;;;;;;22.7;16.5;;;;;;;10.36;92.07;;;;;
2023/10/20 05:25:58;;;;;;;22.7;16.5;;;;;;;10.44;91.8;;;;;
2023/10/20 05:36:58;;;;;;;22;13;;;;;;;10.49;91.99;;;;;
2023/10/20 05:47:58;;;;;;;22;13;;;;;;;10.56;91.9;;;;;
2023/10/20 05:58:58;;;;;;;19.4;13.3;;;;;;;10.53;92.27;;;;;
2023/10/20 06:08:58;;;;;;;19.4;13.3;;;;;;;10.91;91.86;;;;;
2023/10/20 06:19:59;;;;;;;19.4;13.3;;;;;;;10.91;91.51;;;;;
2023/10/20 06:31:00;;;;;;;19.4;13.4;;;;;;;11.1;91.22;;;;;
2023/10/20 06:41:58;;;;;;;19.4;13.4;;;;;;;11.17;91.28;;;;;
2023/10/20 06:52:03;;;;;;;19.4;13.4;;;;;;;11.29;90.87;;;;;
2023/10/20 07:02:58;;;;;;;19;13.3;;;;;;;11.49;91.48;;;;;
2023/10/20 07:13:00;;;;;;;19;13.3;;;;;;;11.95;90.86;;;;;
2023/10/20 07:23:58;;;;;;;19;13.3;;;;;;;12.19;88.81;;;;;
2023/10/20 07:34:58;;;;;;;19.1;15.3;;;;;;;12.37;88.83;;;;;
2023/10/20 07:45:58;;;;;;;19.1;15.3;;;;;;;12.79;88.67;;;;;
2023/10/20 07:55:58;;;;;;;19.1;15.3;;;;;;;13.27;87.4;;;;;
2023/10/20 08:06:59;;;;;;;21;16.2;;;;;;;13.53;86.11;;;;;
2023/10/20 08:17:01;;;;;;;21;16.2;;;;;;;13.88;85.63;;;;;
2023/10/20 08:26:58;;;;;;;21;16.2;;;;;;;13.94;85.22;;;;;
2023/10/20 08:36:58;;;;;;;16.8;13.8;;;;;;;14.04;85.6;;;;;
2023/10/20 08:46:58;;;;;;;16.8;13.8;;;;;;;14.03;85.65;;;;;
2023/10/20 08:57:58;;;;;;;16.8;13.8;;;;;;;14.2;85.34;;;;;
2023/10/20 09:07:59;;;;;;;20.7;11.9;;;;;;;14.44;84.82;;;;;
2023/10/20 09:17:58;;;;;;;20.7;11.9;;;;;;;14.54;85.07;;;;;
2023/10/20 09:28:58;;;;;;;14.1;10.9;;;;;;;14.76;84.56;;;;;
2023/10/20 09:39:58;;;;;;;14.1;10.9;;;;;;;14.91;84.84;;;;;
2023/10/20 09:49:58;;;;;;;14.1;10.9;;;;;;;15.67;83.84;;;;;
2023/10/20 10:00:58;;;;;;;15.7;11.5;;;;;;;16.07;83.13;;;;;
2023/10/20 10:10:59;;;;;;;15.7;11.5;;;;;;;16.58;82.1;;;;;
2023/10/20 10:17:26;;;;;;;15.7;11.5;;;;;;;16.97;81.25;;;;;
2023/10/20 10:27:26;;;;;;;15.7;11.5;;;;;;;17.69;80.36;;;;;
2023/10/20 10:38:28;;;;;;;16.4;10.6;;;;;;;18.32;79.39;;;;;
2023/10/20 10:49:26;;;;;;;16.4;10.6;;;;;;;18.25;78.33;;;;;
2023/10/20 11:00:26;;;;;;;17.3;9.4;;;;;;;18.06;79.32;;;;;
2023/10/20 11:10:27;;;;;;;17.3;9.4;;;;;;;17.89;80.44;;;;;
2023/10/20 11:21:27;;;;;;;17.3;9.4;;;;;;;17.72;81.24;;;;;
2023/10/20 11:32:26;;;;;;;12.7;9.1;;;;;;;17.88;81.23;;;;;
2023/10/20 11:43:27;;;;;;;12.7;9.1;;;;;;;18.24;80.2;;;;;
2023/10/20 11:53:27;;;;;;;12.7;9.1;;;;;;;17.95;80.85;;;;;
2023/10/20 12:04:26;;;;;;;13.6;9.7;;;;;;;17.99;80.9;;;;;
2023/10/20 12:15:26;;;;;;;13.6;9.7;;;;;;;17.73;82.07;;;;;
2023/10/20 12:26:26;;;;;;;13.6;9.7;;;;;;;17.85;83.5;;;;;
2023/10/20 12:36:28;;;;;;;13.8;10;;;;;;;18.17;83.68;;;;;
2023/10/20 12:47:27;;;;;;;13.8;10;;;;;;;18.83;77.66;;;;;
2023/10/20 12:58:27;;;;;;;13.8;10;;;;;;;19.35;75;;;;;
2023/10/20 13:09:27;;;;;;;12.2;7;;;;;;;19.94;74.81;;;;;
2023/10/20 13:19:27;;;;;;;12.2;7;;;;;;;20.44;71.95;;;;;
2023/10/20 13:30:26;;;;;;;11.5;5.9;;;;;;;20.65;70.89;;;;;
2023/10/20 13:40:27;;;;;;;11.5;5.9;;;;;;;20.54;70.27;;;;;
2023/10/20 13:51:26;;;;;;;11.5;5.9;;;;;;;20.49;69.84;;;;;
2023/10/20 14:01:26;;;;;;;14.6;5.6;;;;;;;20.7;69.24;;;;;
2023/10/20 14:11:27;;;;;;;14.6;5.6;;;;;;;20.63;70.26;;;;;
2023/10/20 14:22:27;;;;;;;14.6;5.6;;;;;;;20.28;69.52;;;;;
2023/10/20 14:33:27;;;;;;;13.1;6.2;;;;;;;20.06;69.63;;;;;
2023/10/20 14:43:27;;;;;;;13.1;6.2;;;;;;;19.86;70.08;;;;;
2023/10/20 14:54:27;;;;;;;13.1;6.2;;;;;;;19.7;70.26;;;;;
2023/10/20 15:05:27;;;;;;;15;7.5;;;;;;;19.4;70.82;;;;;
2023/10/20 15:16:27;;;;;;;15;7.5;;;;;;;18.99;71.85;;;;;
2023/10/20 15:26:27;;;;;;;15;7.5;;;;;;;18.51;73.26;;;;;
2023/10/20 15:36:27;;;;;;;11.9;6.6;;;;;;;18.16;73.3;;;;;
2023/10/20 15:47:27;;;;;;;11.9;6.6;;;;;;;17.93;73.58;;;;;
2023/10/20 15:58:27;;;;;;;11.9;6.6;;;;;;;17.79;74.1;;;;;
2023/10/20 16:08:27;;;;;;;13.2;8;;;;;;;17.49;75.02;;;;;
2023/10/20 16:18:27;;;;;;;13.2;8;;;;;;;17.2;75.42;;;;;
2023/10/20 16:28:27;;;;;;;13.2;8;;;;;;;17.04;76.29;;;;;
2023/10/20 16:39:27;;;;;;;12.9;6.8;;;;;;;16.87;76.6;;;;;
2023/10/20 16:50:27;;;;;;;12.9;6.8;;;;;;;16.72;77.55;;;;;
2023/10/20 17:00:27;;;;;;;16.3;8.6;;;;;;;16.7;77.97;;;;;
2023/10/20 17:10:27;;;;;;;16.3;8.6;;;;;;;16.56;78.37;;;;;
2023/10/20 17:21:27;;;;;;;16.3;8.6;;;;;;;16.44;78.06;;;;;
2023/10/20 17:31:27;;;;;;;14.7;9.7;;;;;;;16.78;76.53;;;;;
2023/10/20 17:42:27;;;;;;;14.7;9.7;;;;;;;16.92;76.02;;;;;
2023/10/20 17:52:27;;;;;;;14.7;9.7;;;;;;;16.8;78.36;;;;;
2023/10/20 18:03:27;;;;;;;17.4;8.9;;;;;;;16.6;78.92;;;;;
2023/10/20 18:14:27;;;;;;;17.4;8.9;;;;;;;16.48;79.66;;;;;
2023/10/20 18:24:28;;;;;;;17.4;8.9;;;;;;;16.42;79.72;;;;;
2023/10/20 18:35:29;;;;;;;16.5;10.4;;;;;;;16.53;79.79;;;;;
2023/10/20 18:45:27;;;;;;;16.5;10.4;;;;;;;16.68;79.08;;;;;
2023/10/20 18:56:27;;;;;;;16.5;10.4;;;;;;;16.66;79.48;;;;;
2023/10/20 19:07:27;;;;;;;18.4;12.1;;;;;;;16.7;79.56;;;;;
2023/10/20 19:18:27;;;;;;;18.4;12.1;;;;;;;16.86;78.49;;;;;
2023/10/20 19:28:27;;;;;;;18.4;12.1;;;;;;;17.12;77.29;;;;;
2023/10/20 19:39:27;;;;;;;22.2;13.6;;;;;;;17.11;77.53;;;;;
2023/10/20 19:50:27;;;;;;;22.2;13.6;;;;;;;17.01;77.79;;;;;
2023/10/20 20:01:27;;;;;;;24.7;15.6;;;;;;;16.94;78.01;;;;;
2023/10/20 20:11:27;;;;;;;24.7;15.6;;;;;;;16.98;76.82;;;;;
2023/10/20 20:21:27;;;;;;;24.7;15.6;;;;;;;17.31;75.81;;;;;
2023/10/20 20:32:27;;;;;;;16;8.7;;;;;;;17.51;75.08;;;;;
2023/10/20 20:42:27;;;;;;;16;8.7;;;;;;;18.29;71.18;;;;;
2023/10/20 20:53:27;;;;;;;16;8.7;;;;;;;19.07;68.3;;;;;
2023/10/20 21:03:27;;;;;;;17.7;6.6;;;;;;;19.37;67.32;;;;;
2023/10/20 21:14:27;;;;;;;17.7;6.6;;;;;;;19.56;66.34;;;;;
2023/10/20 21:24:27;;;;;;;17.7;6.6;;;;;;;19.64;65.76;;;;;
2023/10/20 21:35:27;;;;;;;21.6;7.4;;;;;;;19.02;69.53;;;;;
2023/10/20 21:46:27;;;;;;;21.6;7.4;;;;;;;18.16;71.93;;;;;
2023/10/20 21:56:27;;;;;;;21.6;7.4;;;;;;;17.59;73.87;;;;;
2023/10/20 22:06:27;;;;;;;16;9.4;;;;;;;17.11;75.78;;;;;
2023/10/20 22:16:27;;;;;;;16;9.4;;;;;;;16.67;76.99;;;;;
2023/10/20 22:26:27;;;;;;;16;9.4;;;;;;;16.32;78.16;;;;;
2023/10/20 22:36:27;;;;;;;18.9;10.6;;;;;;;15.98;79.39;;;;;
2023/10/20 22:46:27;;;;;;;18.9;10.6;;;;;;;15.78;81.68;;;;;
2023/10/20 22:57:27;;;;;;;18.9;10.6;;;;;;;15.76;82.4;;;;;
2023/10/20 23:07:27;;;;;;;19.4;10;;;;;;;16.09;81.16;;;;;
2023/10/20 23:18:27;;;;;;;19.4;10;;;;;;;16.59;79.39;;;;;
2023/10/20 23:29:27;;;;;;;20.3;8.7;;;;;;;16.5;80.12;;;;;
2023/10/20 23:39:28;;;;;;;20.3;8.7;;;;;;;16.45;80.72;;;;;
2023/10/20 23:50:27;;;;;;;20.3;8.7;;;;;;;16.72;79.73;;;;;
